createdAt,value
2023-05-20T03:12:21.762Z,101360.39
2023-05-20T03:14:55.335Z,101363.55
2023-05-20T03:17:23.563Z,101371.55
2023-05-20T03:19:51.554Z,101369.30
2023-05-20T03:22:19.787Z,101371.61
2023-05-20T03:24:48.662Z,101368.45
2023-05-20T03:27:16.556Z,101368.77
2023-05-20T03:29:44.817Z,101369.02
2023-05-20T03:32:12.709Z,101369.13
2023-05-20T03:34:40.860Z,101372.37
2023-05-20T03:37:08.724Z,101369.73
2023-05-20T03:39:36.608Z,101369.52
2023-05-20T03:42:08.135Z,101372.27
2023-05-20T03:44:36.198Z,101372.48
2023-05-20T03:47:04.364Z,101371.80
2023-05-20T03:49:32.752Z,101366.59
2023-05-20T03:52:01.464Z,101369.59
2023-05-20T03:54:31.766Z,101372.98
2023-05-20T03:57:01.073Z,101370.09
2023-05-20T03:59:29.956Z,101368.52
2023-05-20T04:01:58.051Z,101371.20
2023-05-20T04:04:28.871Z,101369.54
2023-05-20T04:06:57.091Z,101367.16
2023-05-20T04:09:25.231Z,101369.50
2023-05-20T04:11:53.258Z,101368.15
2023-05-20T04:14:21.133Z,101369.09
2023-05-20T04:16:50.448Z,101369.65
2023-05-20T04:19:21.429Z,101367.61
2023-05-20T04:21:49.978Z,101367.96
2023-05-20T04:24:18.014Z,101368.09
2023-05-20T04:26:46.938Z,101371.42
2023-05-20T04:29:16.310Z,101373.70
2023-05-20T04:31:46.031Z,101370.57
2023-05-20T04:34:15.220Z,101372.88
2023-05-20T04:36:45.868Z,101378.23
2023-05-20T04:39:14.171Z,101376.50
2023-05-20T04:41:42.189Z,101376.52
2023-05-20T04:44:10.264Z,101367.85
2023-05-20T04:46:40.023Z,101368.78
2023-05-20T04:49:07.957Z,101369.09
2023-05-20T04:51:36.083Z,101364.14
2023-05-20T04:54:04.029Z,101367.61
2023-05-20T04:56:31.885Z,101364.39
2023-05-20T04:59:00.327Z,101359.55
2023-05-20T05:01:28.242Z,101357.55
2023-05-20T05:03:56.377Z,101359.45
2023-05-20T05:06:24.981Z,101357.48
2023-05-20T05:08:52.950Z,101359.20
2023-05-20T05:11:21.562Z,101360.25
2023-05-20T05:13:49.907Z,101365.07
2023-05-20T05:16:18.663Z,101366.11
2023-05-20T05:18:46.624Z,101368.75
2023-05-20T05:21:15.337Z,101371.45
2023-05-20T05:23:43.876Z,101369.25
2023-05-20T05:26:12.440Z,101369.85
2023-05-20T05:28:43.401Z,101364.81
2023-05-20T05:31:11.844Z,101366.31
2023-05-20T05:33:39.932Z,101367.15
2023-05-20T05:36:08.804Z,101368.73
2023-05-20T05:38:36.827Z,101367.13
2023-05-20T05:41:04.903Z,101365.73
2023-05-20T05:43:33.242Z,101367.38
2023-05-20T05:46:01.390Z,101369.59
2023-05-20T05:48:29.589Z,101368.45
2023-05-20T05:50:57.448Z,101369.86
2023-05-20T05:53:26.428Z,101371.41
2023-05-20T05:55:54.604Z,101372.88
2023-05-20T05:58:22.952Z,101371.60
2023-05-20T06:00:53.196Z,101376.95
2023-05-20T06:03:21.259Z,101374.70
2023-05-20T06:05:49.440Z,101373.55
2023-05-20T06:08:17.486Z,101374.95
2023-05-20T06:10:51.920Z,101368.73
2023-05-20T06:13:20.778Z,101370.65
2023-05-20T06:15:52.133Z,101372.11
2023-05-20T06:18:20.047Z,101371.20
2023-05-20T06:20:55.987Z,101367.96
2023-05-20T06:23:23.979Z,101368.58
2023-05-20T06:25:59.933Z,101368.52
2023-05-20T06:28:28.073Z,101366.86
2023-05-20T06:30:57.080Z,101369.83
2023-05-20T06:33:28.710Z,101372.44
2023-05-20T06:36:01.900Z,101372.80
2023-05-20T06:38:30.284Z,101371.28
2023-05-20T06:40:58.379Z,101370.91
2023-05-20T06:43:26.258Z,101365.75
2023-05-20T06:46:01.409Z,101368.66
2023-05-20T06:48:34.659Z,101365.14
2023-05-20T06:51:02.645Z,101364.70
2023-05-20T06:53:31.212Z,101365.66
2023-05-20T06:55:59.269Z,101360.15
2023-05-20T06:58:28.925Z,101359.51
2023-05-20T07:00:58.053Z,101362.11
2023-05-20T07:03:26.825Z,101359.23
2023-05-20T07:05:55.290Z,101354.09
2023-05-20T07:08:23.215Z,101360.04
2023-05-20T07:10:51.611Z,101356.50
2023-05-20T07:13:24.139Z,101353.91
2023-05-20T07:15:52.731Z,101353.07
2023-05-20T07:18:21.882Z,101350.77
2023-05-20T07:20:56.881Z,101353.77
2023-05-20T07:23:43.202Z,101354.19
2023-05-20T07:26:11.372Z,101353.88
2023-05-20T07:28:39.748Z,101353.52
2023-05-20T07:31:07.750Z,101353.79
2023-05-20T07:33:42.577Z,101353.30
2023-05-20T07:36:11.413Z,101346.58
2023-05-20T07:38:45.041Z,101343.69
2023-05-20T07:41:21.488Z,101344.55
2023-05-20T07:43:50.169Z,101344.60
2023-05-20T07:46:19.959Z,101345.27
2023-05-20T07:48:48.271Z,101344.48
2023-05-20T07:51:16.886Z,101342.64
2023-05-20T07:53:44.939Z,101338.14
2023-05-20T07:56:13.377Z,101337.52
2023-05-20T07:58:42.377Z,101335.84
2023-05-20T08:01:11.774Z,101331.01
2023-05-20T08:03:39.790Z,101329.34
2023-05-20T08:06:12.053Z,101329.07
2023-05-20T08:08:43.489Z,101329.73
2023-05-20T08:11:18.517Z,101328.36
2023-05-20T08:13:46.512Z,101327.48
2023-05-20T08:16:15.139Z,101328.03
2023-05-20T08:18:45.049Z,101327.43
2023-05-20T08:21:14.387Z,101327.51
2023-05-20T08:23:42.380Z,101328.05
2023-05-20T08:26:10.229Z,101330.64
2023-05-20T08:28:40.974Z,101329.99
2023-05-20T08:31:10.114Z,101330.37
2023-05-20T08:33:38.354Z,101325.55
2023-05-20T08:36:08.451Z,101322.13
2023-05-20T08:38:36.748Z,101318.98
2023-05-20T08:41:04.714Z,101319.64
2023-05-20T08:43:32.983Z,101324.15
2023-05-20T08:46:05.293Z,101320.14
2023-05-20T08:48:36.103Z,101323.77
2023-05-20T08:51:06.322Z,101322.11
2023-05-20T08:53:34.329Z,101320.16
2023-05-20T08:56:05.524Z,101322.05
2023-05-20T08:58:33.477Z,101320.49
2023-05-20T09:01:02.234Z,101320.39
2023-05-20T09:03:30.621Z,101316.27
2023-05-20T09:06:07.733Z,101317.20
2023-05-20T09:08:37.536Z,101312.66
2023-05-20T09:11:05.580Z,101312.08
2023-05-20T09:13:33.422Z,101312.77
2023-05-20T09:16:04.297Z,101312.10
2023-05-20T09:18:32.312Z,101304.78
2023-05-20T09:21:07.133Z,101304.68
2023-05-20T09:23:38.852Z,101302.79
2023-05-20T09:26:07.170Z,101305.38
2023-05-20T09:28:38.562Z,101298.98
2023-05-20T09:31:07.438Z,101295.11
2023-05-20T09:33:37.474Z,101293.39
2023-05-20T09:36:08.320Z,101288.67
2023-05-20T09:38:40.416Z,101286.46
2023-05-20T09:41:12.042Z,101290.44
2023-05-20T09:43:40.904Z,101292.16
2023-05-20T09:46:09.513Z,101293.97
2023-05-20T09:48:38.346Z,101294.02
2023-05-20T09:51:08.062Z,101292.91
2023-05-20T09:53:36.765Z,101292.20
2023-05-20T09:56:05.646Z,101292.23
2023-05-20T09:58:36.362Z,101289.09
2023-05-20T10:01:05.868Z,101289.61
2023-05-20T10:03:34.528Z,101291.11
2023-05-20T10:06:29.038Z,101288.86
2023-05-20T10:09:24.886Z,101283.91
2023-05-20T10:12:16.608Z,101283.11
2023-05-20T10:14:53.756Z,101285.81
2023-05-20T10:17:52.710Z,101279.54
2023-05-20T10:20:20.590Z,101279.90
2023-05-20T10:22:58.724Z,101277.49
2023-05-20T10:25:28.664Z,101279.58
2023-05-20T10:28:09.268Z,101278.10
2023-05-20T10:30:37.421Z,101275.73
2023-05-20T10:33:07.357Z,101268.91
2023-05-20T10:35:35.761Z,101267.07
2023-05-20T10:38:11.853Z,101265.73
2023-05-20T10:40:40.945Z,101255.16
2023-05-20T10:43:16.352Z,101252.54
2023-05-20T10:45:55.116Z,101249.77
2023-05-20T10:48:31.822Z,101246.65
2023-05-20T10:51:04.336Z,101245.00
2023-05-20T10:53:40.696Z,101249.05
2023-05-20T10:56:21.837Z,101248.08
2023-05-20T10:58:51.765Z,101248.42
2023-05-20T11:01:24.796Z,101243.97
2023-05-20T11:03:56.369Z,101241.17
2023-05-20T11:06:28.700Z,101238.36
2023-05-20T11:09:05.001Z,101241.38
2023-05-20T11:11:32.974Z,101232.96
2023-05-20T11:14:01.155Z,101230.19
2023-05-20T11:16:29.109Z,101228.91
2023-05-20T11:18:57.451Z,101225.70
2023-05-20T11:21:25.584Z,101224.95
2023-05-20T11:23:53.493Z,101223.95
2023-05-20T11:26:21.466Z,101222.86
2023-05-20T11:28:49.534Z,101224.60
2023-05-20T11:31:18.884Z,101222.56
2023-05-20T11:33:46.812Z,101221.36
2023-05-20T11:36:27.065Z,101218.31
2023-05-20T11:39:00.218Z,101219.88
2023-05-20T11:41:28.882Z,101219.29
2023-05-20T11:44:00.473Z,101213.50
2023-05-20T11:46:28.794Z,101214.78
2023-05-20T11:48:57.879Z,101208.50
2023-05-20T11:51:29.704Z,101209.80
2023-05-20T11:54:02.953Z,101210.86
2023-05-20T11:56:33.510Z,101212.64
2023-05-20T11:59:01.838Z,101212.81
2023-05-20T12:01:33.856Z,101206.16
2023-05-20T12:04:02.053Z,101205.59
2023-05-20T12:06:30.171Z,101200.96
2023-05-20T12:09:07.094Z,101200.95
2023-05-20T12:11:37.446Z,101197.98
2023-05-20T12:14:05.568Z,101197.49
2023-05-20T12:16:34.882Z,101202.84
2023-05-20T12:19:03.814Z,101199.19
2023-05-20T12:21:32.310Z,101196.83
2023-05-20T12:24:01.293Z,101193.60
2023-05-20T12:26:29.942Z,101199.41
2023-05-20T12:28:58.060Z,101197.44
2023-05-20T12:31:26.560Z,101193.73
2023-05-20T12:33:54.792Z,101189.52
2023-05-20T12:36:22.658Z,101190.32
2023-05-20T12:38:50.460Z,101187.86
2023-05-20T12:41:18.407Z,101185.52
2023-05-20T12:43:46.260Z,101185.09
2023-05-20T12:46:14.222Z,101177.11
2023-05-20T12:48:42.759Z,101182.79
2023-05-20T12:51:11.207Z,101183.98
2023-05-20T12:53:39.252Z,101182.19
2023-05-20T12:56:08.043Z,101178.48
2023-05-20T12:58:36.138Z,101172.63
2023-05-20T13:01:04.405Z,101167.94
2023-05-20T13:03:32.563Z,101158.84
2023-05-20T13:06:00.599Z,101161.84
2023-05-20T13:08:28.818Z,101154.62
2023-05-20T13:10:57.102Z,101156.36
2023-05-20T13:13:25.104Z,101157.11
2023-05-20T13:15:53.299Z,101158.52
2023-05-20T13:18:21.455Z,101154.02
2023-05-20T13:20:49.888Z,101151.39
2023-05-20T13:23:17.938Z,101155.75
2023-05-20T13:25:45.714Z,101157.14
2023-05-20T13:28:16.879Z,101161.59
2023-05-20T13:30:44.971Z,101158.42
2023-05-20T13:33:12.912Z,101162.73
2023-05-20T13:35:40.871Z,101155.80
2023-05-20T13:38:08.802Z,101157.04
2023-05-20T13:40:36.880Z,101156.77
2023-05-20T13:43:04.883Z,101157.61
2023-05-20T13:45:32.714Z,101156.02
2023-05-20T13:48:00.712Z,101153.23
2023-05-20T13:50:28.824Z,101146.46
2023-05-20T13:52:56.644Z,101142.48
2023-05-20T13:55:24.979Z,101143.46
2023-05-20T13:57:54.521Z,101141.52
2023-05-20T14:00:22.557Z,101138.35
2023-05-20T14:02:50.698Z,101139.51
2023-05-20T14:05:18.960Z,101136.09
2023-05-20T14:07:46.921Z,101135.91
2023-05-20T14:10:14.955Z,101130.98
2023-05-20T14:12:48.161Z,101130.64
2023-05-20T14:15:16.420Z,101125.30
2023-05-20T14:17:44.524Z,101122.99
2023-05-20T14:20:13.019Z,101113.36
2023-05-20T14:22:40.919Z,101112.94
2023-05-20T14:25:09.265Z,101106.86
2023-05-20T14:27:37.138Z,101108.75
2023-05-20T14:30:06.340Z,101109.77
2023-05-20T14:32:34.463Z,101107.45
2023-05-20T14:35:02.382Z,101113.77
2023-05-20T14:37:30.789Z,101112.75
2023-05-20T14:39:58.821Z,101110.85
2023-05-20T14:42:27.020Z,101108.83
2023-05-20T14:44:55.074Z,101107.67
2023-05-20T14:47:23.016Z,101106.59
2023-05-20T14:49:51.372Z,101109.18
2023-05-20T14:52:19.474Z,101110.13
2023-05-20T14:54:47.760Z,101108.95
2023-05-20T14:57:18.745Z,101104.79
2023-05-20T14:59:46.900Z,101107.37
2023-05-20T15:02:16.306Z,101103.20
2023-05-20T15:04:46.790Z,101102.30
2023-05-20T15:07:16.729Z,101099.34
2023-05-20T15:09:44.667Z,101100.55
2023-05-20T15:12:12.619Z,101095.29
2023-05-20T15:14:41.376Z,101096.54
2023-05-20T15:17:09.399Z,101101.11
2023-05-20T15:19:41.322Z,101097.15
2023-05-20T15:22:09.656Z,101094.64
2023-05-20T15:24:37.818Z,101096.96
2023-05-20T15:27:06.527Z,101101.46
2023-05-20T15:29:34.421Z,101100.09
2023-05-20T15:32:02.845Z,101096.67
2023-05-20T15:34:31.018Z,101093.51
2023-05-20T15:36:58.976Z,101094.52
2023-05-20T15:39:26.863Z,101094.46
2023-05-20T15:41:54.930Z,101087.50
2023-05-20T15:44:22.817Z,101090.10
2023-05-20T15:46:50.861Z,101088.53
2023-05-20T15:49:18.933Z,101084.91
2023-05-20T15:51:55.736Z,101084.92
2023-05-20T15:54:31.929Z,101085.06
2023-05-20T15:57:00.192Z,101082.88
2023-05-20T15:59:28.417Z,101085.06
2023-05-20T16:01:56.280Z,101086.16
2023-05-20T16:04:24.387Z,101088.70
2023-05-20T16:06:52.895Z,101087.81
2023-05-20T16:09:20.872Z,101085.84
2023-05-20T16:11:48.784Z,101088.87
2023-05-20T16:14:17.505Z,101080.85
2023-05-20T16:16:45.799Z,101078.04
2023-05-20T16:19:14.264Z,101079.52
2023-05-20T16:21:42.203Z,101087.27
2023-05-20T16:24:10.154Z,101088.24
2023-05-20T16:26:38.141Z,101088.01
2023-05-20T16:29:06.032Z,101090.81
2023-05-20T16:31:33.921Z,101093.88
2023-05-20T16:34:04.606Z,101090.70
2023-05-20T16:36:32.505Z,101092.40
2023-05-20T16:39:00.473Z,101095.91
2023-05-20T16:41:28.608Z,101099.69
2023-05-20T16:43:56.623Z,101099.97
2023-05-20T16:46:24.768Z,101100.55
2023-05-20T16:48:52.836Z,101095.77
2023-05-20T16:51:20.886Z,101098.14
2023-05-20T16:53:48.815Z,101097.27
2023-05-20T16:56:17.049Z,101102.58
2023-05-20T16:58:45.019Z,101102.10
2023-05-20T17:01:12.981Z,101103.05
2023-05-20T17:03:41.365Z,101102.22
2023-05-20T17:06:10.149Z,101100.46
2023-05-20T17:08:38.182Z,101101.27
2023-05-20T17:11:06.196Z,101106.83
2023-05-20T17:13:34.120Z,101103.55
2023-05-20T17:16:02.738Z,101105.63
2023-05-20T17:18:30.704Z,101109.02
2023-05-20T17:20:58.969Z,101107.83
2023-05-20T17:23:27.067Z,101114.64
2023-05-20T17:25:55.013Z,101116.82
2023-05-20T17:28:22.991Z,101113.44
2023-05-20T17:30:51.050Z,101119.10
2023-05-20T17:33:19.091Z,101116.86
2023-05-20T17:35:47.186Z,101119.11
2023-05-20T17:38:15.074Z,101118.02
2023-05-20T17:40:42.910Z,101119.56
2023-05-20T17:43:10.781Z,101123.88
2023-05-20T17:45:38.623Z,101124.92
2023-05-20T17:48:09.420Z,101133.48
2023-05-20T17:50:38.751Z,101134.16
2023-05-20T17:53:06.621Z,101138.33
2023-05-20T17:55:36.720Z,101136.84
2023-05-20T17:58:05.389Z,101133.80
2023-05-20T18:00:34.811Z,101133.34
2023-05-20T18:03:03.127Z,101135.33
2023-05-20T18:05:31.106Z,101131.83
2023-05-20T18:07:59.219Z,101133.09
2023-05-20T18:10:27.557Z,101136.98
2023-05-20T18:12:55.751Z,101137.89
2023-05-20T18:15:23.631Z,101138.45
2023-05-20T18:17:51.513Z,101144.20
2023-05-20T18:20:19.744Z,101142.14
2023-05-20T18:22:48.145Z,101140.94
2023-05-20T18:25:16.758Z,101143.42
2023-05-20T18:27:44.794Z,101141.95
2023-05-20T18:30:12.961Z,101141.92
2023-05-20T18:32:41.168Z,101143.11
2023-05-20T18:35:09.572Z,101144.17
2023-05-20T18:37:37.470Z,101146.40
2023-05-20T18:40:06.639Z,101144.92
2023-05-20T18:42:34.632Z,101145.73
2023-05-20T18:45:02.936Z,101143.71
2023-05-20T18:47:31.431Z,101144.27
2023-05-20T18:49:59.290Z,101147.36
2023-05-20T18:52:27.272Z,101151.27
2023-05-20T18:54:55.785Z,101155.85
2023-05-20T18:57:24.193Z,101155.70
2023-05-20T18:59:53.930Z,101154.69
2023-05-20T19:02:21.861Z,101153.52
2023-05-20T19:04:50.165Z,101151.86
2023-05-20T19:07:18.148Z,101147.88
2023-05-20T19:09:46.283Z,101147.89
2023-05-20T19:12:14.273Z,101146.48
2023-05-20T19:14:42.210Z,101145.17
2023-05-20T19:17:10.205Z,101147.55
2023-05-20T19:19:38.255Z,101151.02
2023-05-20T19:22:07.089Z,101150.31
2023-05-20T19:24:35.067Z,101149.95
2023-05-20T19:27:03.310Z,101151.65
2023-05-20T19:29:31.536Z,101151.77
2023-05-20T19:31:59.534Z,101152.44
2023-05-20T19:34:27.526Z,101148.25
2023-05-20T19:36:57.183Z,101148.11
2023-05-20T19:39:26.852Z,101145.63
2023-05-20T19:41:55.122Z,101141.98
2023-05-20T19:44:23.579Z,101137.25
2023-05-20T19:46:52.869Z,101139.95
2023-05-20T19:49:21.002Z,101146.84
2023-05-20T19:51:49.232Z,101145.48
2023-05-20T19:54:17.104Z,101148.77
2023-05-20T19:56:44.982Z,101148.91
2023-05-20T19:59:13.065Z,101149.20
2023-05-20T20:01:41.454Z,101146.52
2023-05-20T20:04:09.448Z,101145.16
2023-05-20T20:06:37.575Z,101146.27
2023-05-20T20:09:05.706Z,101146.83
2023-05-20T20:11:33.533Z,101146.01
2023-05-20T20:14:01.440Z,101147.50
2023-05-20T20:16:30.873Z,101148.76
2023-05-20T20:18:59.313Z,101149.86
2023-05-20T20:21:27.186Z,101150.50
2023-05-20T20:23:55.082Z,101146.55
2023-05-20T20:26:25.831Z,101144.20
2023-05-20T20:28:53.774Z,101147.54
2023-05-20T20:31:21.669Z,101147.33
2023-05-20T20:33:50.652Z,101152.94
2023-05-20T20:36:18.665Z,101154.21
2023-05-20T20:38:47.155Z,101154.39
2023-05-20T20:41:18.315Z,101154.56
2023-05-20T20:43:46.508Z,101153.96
2023-05-20T20:46:15.622Z,101151.51
2023-05-20T20:48:46.127Z,101148.55
2023-05-20T20:51:17.449Z,101148.23
2023-05-20T20:53:49.807Z,101146.60
2023-05-20T20:56:18.397Z,101144.71
2023-05-20T20:58:46.398Z,101143.02
2023-05-20T21:01:17.482Z,101143.21
2023-05-20T21:03:46.441Z,101141.70
2023-05-20T21:06:14.330Z,101139.98
2023-05-20T21:08:42.650Z,101135.92
2023-05-20T21:11:10.530Z,101139.21
2023-05-20T21:13:39.661Z,101138.12
2023-05-20T21:16:07.543Z,101136.70
2023-05-20T21:18:35.525Z,101134.71
2023-05-20T21:21:03.505Z,101134.77
2023-05-20T21:23:31.383Z,101135.54
2023-05-20T21:25:59.375Z,101135.95
2023-05-20T21:28:27.138Z,101138.05
2023-05-20T21:30:54.980Z,101141.26
2023-05-20T21:33:22.883Z,101138.95
2023-05-20T21:35:50.723Z,101138.05
2023-05-20T21:38:18.553Z,101140.09
2023-05-20T21:40:46.416Z,101141.98
2023-05-20T21:43:14.343Z,101144.91
2023-05-20T21:45:42.222Z,101145.41
2023-05-20T21:48:09.997Z,101140.91
2023-05-20T21:50:37.869Z,101140.59
2023-05-20T21:53:05.903Z,101138.27
2023-05-20T21:55:35.752Z,101136.12
2023-05-20T21:58:03.734Z,101137.98
2023-05-20T22:00:31.559Z,101141.80
2023-05-20T22:02:59.608Z,101140.66
2023-05-20T22:05:27.648Z,101138.34
2023-05-20T22:07:55.467Z,101138.32
2023-05-20T22:10:23.878Z,101136.55
2023-05-20T22:12:51.916Z,101142.03
2023-05-20T22:15:20.148Z,101143.89
2023-05-20T22:17:48.340Z,101141.38
2023-05-20T22:20:16.177Z,101138.16
2023-05-20T22:22:44.075Z,101137.95
2023-05-20T22:25:12.656Z,101135.09
2023-05-20T22:27:43.010Z,101138.89
2023-05-20T22:30:11.879Z,101135.53
2023-05-20T22:32:40.487Z,101133.52
2023-05-20T22:35:09.172Z,101134.84
2023-05-20T22:37:37.445Z,101133.20
2023-05-20T22:40:06.190Z,101133.48
2023-05-20T22:42:34.013Z,101133.79
2023-05-20T22:45:01.975Z,101128.00
2023-05-20T22:47:29.923Z,101129.11
2023-05-20T22:50:02.296Z,101129.40
2023-05-20T22:52:30.227Z,101126.09
2023-05-20T22:54:58.764Z,101127.94
2023-05-20T22:57:26.838Z,101130.54
2023-05-20T22:59:55.672Z,101127.39
2023-05-20T23:02:23.563Z,101129.63
2023-05-20T23:04:51.941Z,101129.95
2023-05-20T23:07:19.819Z,101130.61
2023-05-20T23:09:48.674Z,101132.31
2023-05-20T23:12:16.622Z,101131.39
2023-05-20T23:14:44.453Z,101134.27
2023-05-20T23:17:12.451Z,101136.42
2023-05-20T23:19:40.605Z,101137.34
2023-05-20T23:22:08.424Z,101135.02
2023-05-20T23:24:36.607Z,101134.43
2023-05-20T23:27:04.775Z,101131.26
2023-05-20T23:29:32.962Z,101133.41
2023-05-20T23:32:00.861Z,101135.09
2023-05-20T23:34:31.152Z,101135.88
2023-05-20T23:36:58.966Z,101136.14
2023-05-20T23:39:26.865Z,101132.59
2023-05-20T23:41:54.709Z,101128.52
2023-05-20T23:44:22.566Z,101123.21
2023-05-20T23:46:51.166Z,101122.73
2023-05-20T23:49:24.373Z,101119.50
2023-05-20T23:51:52.994Z,101119.08
2023-05-20T23:54:21.245Z,101116.09
2023-05-20T23:56:50.237Z,101115.64
2023-05-20T23:59:18.235Z,101113.12
